OCN5PC EDDF-EDDB
Flight info
| Callsign | OCN5PC |
|---|---|
| Flight time | 0h 47m |
| Altitude | 31000 |
| Route | TOBAK3W TOBAK N858 SWALM T201 TAMEB T278 KLF KLF1L |
| Aircraft | A320/M-SDE3FGHIRWY/LB1 |
Departure
| Time | 2026-04-19 05:48 |
|---|---|
| Airport | Frankfurt Main Airport (EDDF) |
Arrival
| Time | 2026-04-19 06:36 |
|---|---|
| Airport | Berlin Brandenburg Airport (EDDB) |
| Time | Latitude | Longitude | Altitude | Speed | Heading |
|---|---|---|---|---|---|
| 2026-04-19 05:32 | 50.04998 | 8.58427 | 356 ft | 0 kts | 339° |
| 2026-04-19 05:42 | 50.04997 | 8.58428 | 353 ft | 2 kts | 339° |
| 2026-04-19 05:42 | 50.04981 | 8.58438 | 361 ft | 3 kts | 339° |
| 2026-04-19 05:43 | 50.04964 | 8.58448 | 356 ft | 3 kts | 339° |
| 2026-04-19 05:43 | 50.04947 | 8.58458 | 359 ft | 3 kts | 339° |
| 2026-04-19 05:43 | 50.04937 | 8.58465 | 358 ft | 1 kts | 349° |
| 2026-04-19 05:43 | 50.04921 | 8.58461 | 356 ft | 2 kts | 61° |
| 2026-04-19 05:44 | 50.04918 | 8.58456 | 358 ft | 0 kts | 73° |
| 2026-04-19 05:45 | 50.04920 | 8.58468 | 355 ft | 4 kts | 77° |
| 2026-04-19 05:45 | 50.04936 | 8.58552 | 353 ft | 11 kts | 70° |
| 2026-04-19 05:45 | 50.04935 | 8.58645 | 346 ft | 8 kts | 121° |
| 2026-04-19 05:45 | 50.04886 | 8.58687 | 335 ft | 9 kts | 156° |
| 2026-04-19 05:46 | 50.04828 | 8.58722 | 332 ft | 9 kts | 160° |
| 2026-04-19 05:46 | 50.04765 | 8.58756 | 329 ft | 10 kts | 161° |
| 2026-04-19 05:46 | 50.04695 | 8.58768 | 327 ft | 10 kts | 187° |
| 2026-04-19 05:46 | 50.04633 | 8.58756 | 325 ft | 8 kts | 187° |
| 2026-04-19 05:47 | 50.04624 | 8.58753 | 325 ft | 0 kts | 193° |
| 2026-04-19 05:47 | 50.04610 | 8.58744 | 325 ft | 9 kts | 209° |
| 2026-04-19 05:47 | 50.04525 | 8.58641 | 325 ft | 20 kts | 221° |
| 2026-04-19 05:47 | 50.04450 | 8.58432 | 327 ft | 28 kts | 249° |
| 2026-04-19 05:48 | 50.04305 | 8.57816 | 333 ft | 92 kts | 250° |
| 2026-04-19 05:48 | 50.04019 | 8.56624 | 350 ft | 142 kts | 249° |
| 2026-04-19 05:48 | 50.03640 | 8.55028 | 641 ft | 160 kts | 251° |
| 2026-04-19 05:48 | 50.03258 | 8.53433 | 1444 ft | 156 kts | 256° |
| 2026-04-19 05:49 | 50.02869 | 8.51788 | 1923 ft | 172 kts | 259° |
| 2026-04-19 05:49 | 50.02312 | 8.49986 | 2318 ft | 201 kts | 240° |
| 2026-04-19 05:49 | 50.01198 | 8.48532 | 2977 ft | 218 kts | 212° |
| 2026-04-19 05:49 | 49.99717 | 8.47900 | 3857 ft | 223 kts | 193° |
| 2026-04-19 05:50 | 49.98194 | 8.47570 | 4777 ft | 219 kts | 193° |
| 2026-04-19 05:50 | 49.96692 | 8.47241 | 5600 ft | 218 kts | 194° |
| 2026-04-19 05:50 | 49.95214 | 8.46695 | 6199 ft | 226 kts | 201° |
| 2026-04-19 05:50 | 49.93643 | 8.45960 | 6696 ft | 242 kts | 201° |
| 2026-04-19 05:51 | 49.92096 | 8.44940 | 7438 ft | 241 kts | 220° |
| 2026-04-19 05:51 | 49.91016 | 8.43022 | 8261 ft | 236 kts | 246° |
| 2026-04-19 05:51 | 49.90623 | 8.40570 | 9096 ft | 237 kts | 270° |
| 2026-04-19 05:51 | 49.91000 | 8.38070 | 9933 ft | 244 kts | 295° |
| 2026-04-19 05:52 | 49.92127 | 8.36052 | 10699 ft | 256 kts | 321° |
| 2026-04-19 05:52 | 49.93767 | 8.34799 | 11275 ft | 272 kts | 331° |
| 2026-04-19 05:52 | 49.95586 | 8.33596 | 11518 ft | 296 kts | 332° |
| 2026-04-19 05:52 | 49.97535 | 8.32331 | 11722 ft | 320 kts | 332° |
| 2026-04-19 05:53 | 49.99662 | 8.30959 | 11886 ft | 343 kts | 333° |
| 2026-04-19 05:53 | 50.01917 | 8.29530 | 12306 ft | 356 kts | 335° |
| 2026-04-19 05:53 | 50.04381 | 8.28710 | 12943 ft | 370 kts | 352° |
| 2026-04-19 05:53 | 50.06980 | 8.28985 | 13608 ft | 382 kts | 8° |
| 2026-04-19 05:54 | 50.09556 | 8.30216 | 14227 ft | 390 kts | 15° |
| 2026-04-19 05:54 | 50.12143 | 8.31573 | 14826 ft | 393 kts | 15° |
| 2026-04-19 05:54 | 50.14747 | 8.32944 | 15431 ft | 397 kts | 15° |
| 2026-04-19 05:54 | 50.17379 | 8.34331 | 16035 ft | 401 kts | 15° |
| 2026-04-19 05:55 | 50.20035 | 8.35731 | 16616 ft | 405 kts | 15° |
| 2026-04-19 05:55 | 50.22713 | 8.37140 | 17193 ft | 408 kts | 15° |
| 2026-04-19 05:55 | 50.25421 | 8.38561 | 17765 ft | 412 kts | 15° |
| 2026-04-19 05:55 | 50.28097 | 8.40261 | 18311 ft | 419 kts | 24° |
| 2026-04-19 05:56 | 50.30600 | 8.42677 | 18754 ft | 425 kts | 35° |
| 2026-04-19 05:56 | 50.32862 | 8.45695 | 19244 ft | 429 kts | 40° |
| 2026-04-19 05:56 | 50.35090 | 8.48807 | 19799 ft | 429 kts | 41° |
| 2026-04-19 05:56 | 50.37323 | 8.51919 | 20454 ft | 431 kts | 40° |
| 2026-04-19 05:57 | 50.39571 | 8.55045 | 21057 ft | 433 kts | 40° |
| 2026-04-19 05:57 | 50.41068 | 8.57128 | 21396 ft | 436 kts | 40° |
| 2026-04-19 05:57 | 50.43345 | 8.60293 | 21883 ft | 438 kts | 40° |
| 2026-04-19 05:57 | 50.45634 | 8.63459 | 22344 ft | 440 kts | 40° |
| 2026-04-19 05:58 | 50.47971 | 8.66592 | 22825 ft | 442 kts | 39° |
| 2026-04-19 05:58 | 50.50341 | 8.69693 | 23291 ft | 445 kts | 38° |
| 2026-04-19 05:58 | 50.52736 | 8.72798 | 23718 ft | 448 kts | 38° |
| 2026-04-19 05:58 | 50.55126 | 8.75975 | 24097 ft | 450 kts | 44° |
| 2026-04-19 05:59 | 50.57249 | 8.79613 | 24429 ft | 452 kts | 54° |
| 2026-04-19 05:59 | 50.58987 | 8.83738 | 24765 ft | 453 kts | 63° |
| 2026-04-19 05:59 | 50.60493 | 8.88106 | 25116 ft | 455 kts | 64° |
| 2026-04-19 05:59 | 50.62010 | 8.92496 | 25510 ft | 458 kts | 63° |
| 2026-04-19 06:00 | 50.63538 | 8.96905 | 25845 ft | 460 kts | 63° |
| 2026-04-19 06:00 | 50.65077 | 9.01335 | 26184 ft | 462 kts | 63° |
| 2026-04-19 06:00 | 50.66624 | 9.05776 | 26514 ft | 464 kts | 63° |
| 2026-04-19 06:00 | 50.68179 | 9.10250 | 26834 ft | 466 kts | 63° |
| 2026-04-19 06:01 | 50.69715 | 9.14681 | 27124 ft | 468 kts | 63° |
| 2026-04-19 06:01 | 50.71194 | 9.19260 | 27412 ft | 468 kts | 69° |
| 2026-04-19 06:01 | 50.72262 | 9.24098 | 27689 ft | 467 kts | 78° |
| 2026-04-19 06:01 | 50.73013 | 9.29099 | 27972 ft | 469 kts | 79° |
| 2026-04-19 06:02 | 50.73761 | 9.34122 | 28244 ft | 471 kts | 79° |
| 2026-04-19 06:02 | 50.74520 | 9.39160 | 28455 ft | 473 kts | 79° |
| 2026-04-19 06:02 | 50.75291 | 9.44244 | 28601 ft | 479 kts | 79° |
| 2026-04-19 06:02 | 50.76069 | 9.49389 | 28788 ft | 483 kts | 79° |
| 2026-04-19 06:03 | 50.76850 | 9.54546 | 29118 ft | 483 kts | 79° |
| 2026-04-19 06:03 | 50.77627 | 9.59709 | 29493 ft | 482 kts | 79° |
| 2026-04-19 06:03 | 50.78392 | 9.64867 | 29880 ft | 481 kts | 79° |
| 2026-04-19 06:03 | 50.79149 | 9.70019 | 30258 ft | 481 kts | 79° |
| 2026-04-19 06:04 | 50.79906 | 9.75168 | 30554 ft | 481 kts | 79° |
| 2026-04-19 06:04 | 50.80667 | 9.80330 | 30809 ft | 482 kts | 79° |
| 2026-04-19 06:04 | 50.81429 | 9.85501 | 31017 ft | 484 kts | 79° |
| 2026-04-19 06:05 | 50.82948 | 9.95945 | 31070 ft | 492 kts | 78° |
| 2026-04-19 06:05 | 50.84266 | 10.06526 | 31051 ft | 493 kts | 87° |
| 2026-04-19 06:06 | 50.84086 | 10.17286 | 31050 ft | 488 kts | 98° |
| 2026-04-19 06:06 | 50.83461 | 10.27987 | 31048 ft | 489 kts | 98° |
| 2026-04-19 06:07 | 50.82853 | 10.38702 | 31026 ft | 489 kts | 98° |
| 2026-04-19 06:07 | 50.82227 | 10.49431 | 31023 ft | 490 kts | 98° |
| 2026-04-19 06:08 | 50.81576 | 10.60163 | 31028 ft | 491 kts | 99° |
| 2026-04-19 06:08 | 50.81622 | 10.70915 | 31032 ft | 496 kts | 83° |
| 2026-04-19 06:09 | 50.83647 | 10.81358 | 31059 ft | 499 kts | 64° |
| 2026-04-19 06:09 | 50.86906 | 10.91062 | 31035 ft | 500 kts | 62° |
| 2026-04-19 06:10 | 50.90180 | 11.00794 | 31032 ft | 501 kts | 62° |
| 2026-04-19 06:10 | 50.93450 | 11.10564 | 31034 ft | 502 kts | 62° |
| 2026-04-19 06:11 | 50.96713 | 11.20366 | 31033 ft | 503 kts | 62° |
| 2026-04-19 06:11 | 50.99972 | 11.30195 | 31033 ft | 503 kts | 62° |
| 2026-04-19 06:12 | 51.04848 | 11.44943 | 31032 ft | 502 kts | 62° |
| 2026-04-19 06:12 | 51.08087 | 11.54781 | 31036 ft | 502 kts | 62° |
| 2026-04-19 06:13 | 51.11316 | 11.64639 | 31036 ft | 503 kts | 63° |
| 2026-04-19 06:13 | 51.14542 | 11.74529 | 31039 ft | 503 kts | 63° |
| 2026-04-19 06:14 | 51.17738 | 11.84354 | 31045 ft | 503 kts | 63° |
| 2026-04-19 06:14 | 51.21144 | 11.94094 | 31073 ft | 502 kts | 54° |
| 2026-04-19 06:15 | 51.25701 | 12.02453 | 31029 ft | 499 kts | 44° |
| 2026-04-19 06:15 | 51.30485 | 12.10485 | 31027 ft | 499 kts | 45° |
| 2026-04-19 06:16 | 51.35260 | 12.18551 | 30943 ft | 500 kts | 45° |
| 2026-04-19 06:16 | 51.37651 | 12.22608 | 30701 ft | 501 kts | 45° |
| 2026-04-19 06:16 | 51.40040 | 12.26666 | 30457 ft | 501 kts | 45° |
| 2026-04-19 06:17 | 51.42431 | 12.30727 | 30233 ft | 500 kts | 45° |
| 2026-04-19 06:17 | 51.44819 | 12.34780 | 29963 ft | 500 kts | 45° |
| 2026-04-19 06:17 | 51.47214 | 12.38849 | 29670 ft | 500 kts | 45° |
| 2026-04-19 06:17 | 51.49569 | 12.42863 | 29386 ft | 500 kts | 45° |
| 2026-04-19 06:18 | 51.51951 | 12.46929 | 29096 ft | 500 kts | 45° |
| 2026-04-19 06:18 | 51.54332 | 12.51005 | 28800 ft | 500 kts | 45° |
| 2026-04-19 06:18 | 51.56705 | 12.55077 | 28529 ft | 500 kts | 45° |
| 2026-04-19 06:18 | 51.59079 | 12.59157 | 28083 ft | 499 kts | 45° |
| 2026-04-19 06:19 | 51.61459 | 12.63248 | 26750 ft | 505 kts | 46° |
| 2026-04-19 06:19 | 51.63863 | 12.67383 | 25811 ft | 503 kts | 45° |
| 2026-04-19 06:19 | 51.66245 | 12.71494 | 25013 ft | 498 kts | 46° |
| 2026-04-19 06:19 | 51.68597 | 12.75563 | 24188 ft | 494 kts | 46° |
| 2026-04-19 06:20 | 51.70929 | 12.79604 | 23384 ft | 489 kts | 46° |
| 2026-04-19 06:20 | 51.73193 | 12.83536 | 22587 ft | 482 kts | 46° |
| 2026-04-19 06:20 | 51.75453 | 12.87464 | 21903 ft | 474 kts | 46° |
| 2026-04-19 06:20 | 51.77622 | 12.91430 | 21182 ft | 469 kts | 51° |
| 2026-04-19 06:21 | 51.79424 | 12.95780 | 20541 ft | 462 kts | 58° |
| 2026-04-19 06:21 | 51.81083 | 13.00189 | 19907 ft | 456 kts | 58° |
| 2026-04-19 06:21 | 51.82718 | 13.04552 | 19298 ft | 450 kts | 58° |
| 2026-04-19 06:21 | 51.84327 | 13.08853 | 18718 ft | 444 kts | 58° |
| 2026-04-19 06:22 | 51.85915 | 13.13096 | 18143 ft | 438 kts | 58° |
| 2026-04-19 06:22 | 51.87479 | 13.17284 | 17562 ft | 431 kts | 59° |
| 2026-04-19 06:22 | 51.89012 | 13.21404 | 17039 ft | 423 kts | 59° |
| 2026-04-19 06:22 | 51.90521 | 13.25462 | 16515 ft | 416 kts | 59° |
| 2026-04-19 06:23 | 51.92008 | 13.29464 | 16000 ft | 410 kts | 58° |
| 2026-04-19 06:23 | 51.93467 | 13.33396 | 15473 ft | 404 kts | 58° |
| 2026-04-19 06:23 | 51.94909 | 13.37283 | 14950 ft | 400 kts | 58° |
| 2026-04-19 06:23 | 51.96318 | 13.41086 | 14403 ft | 397 kts | 59° |
| 2026-04-19 06:24 | 51.97733 | 13.44913 | 13852 ft | 394 kts | 59° |
| 2026-04-19 06:24 | 51.99137 | 13.48718 | 13225 ft | 391 kts | 59° |
| 2026-04-19 06:24 | 52.00527 | 13.52488 | 12637 ft | 387 kts | 58° |
| 2026-04-19 06:24 | 52.02124 | 13.55977 | 12026 ft | 384 kts | 47° |
| 2026-04-19 06:25 | 52.04083 | 13.58858 | 11724 ft | 377 kts | 36° |
| 2026-04-19 06:25 | 52.06208 | 13.61355 | 11461 ft | 376 kts | 35° |
| 2026-04-19 06:25 | 52.08321 | 13.63850 | 11177 ft | 374 kts | 36° |
| 2026-04-19 06:25 | 52.10397 | 13.66314 | 10961 ft | 362 kts | 36° |
| 2026-04-19 06:26 | 52.12393 | 13.68680 | 10825 ft | 347 kts | 36° |
| 2026-04-19 06:26 | 52.14301 | 13.70943 | 10706 ft | 333 kts | 36° |
| 2026-04-19 06:26 | 52.16137 | 13.73127 | 10583 ft | 321 kts | 36° |
| 2026-04-19 06:26 | 52.17907 | 13.75238 | 10458 ft | 310 kts | 36° |
| 2026-04-19 06:27 | 52.19619 | 13.77276 | 10301 ft | 301 kts | 36° |
| 2026-04-19 06:27 | 52.21289 | 13.79268 | 10120 ft | 295 kts | 36° |
| 2026-04-19 06:27 | 52.22942 | 13.81235 | 10021 ft | 293 kts | 34° |
| 2026-04-19 06:27 | 52.24700 | 13.82668 | 9896 ft | 282 kts | 15° |
| 2026-04-19 06:28 | 52.26596 | 13.83103 | 9766 ft | 271 kts | 357° |
| 2026-04-19 06:28 | 52.28408 | 13.82584 | 9619 ft | 260 kts | 339° |
| 2026-04-19 06:28 | 52.30082 | 13.81550 | 9397 ft | 254 kts | 340° |
| 2026-04-19 06:28 | 52.31847 | 13.81173 | 8810 ft | 258 kts | 8° |
| 2026-04-19 06:29 | 52.33471 | 13.82212 | 8406 ft | 250 kts | 39° |
| 2026-04-19 06:29 | 52.34493 | 13.84423 | 7898 ft | 245 kts | 69° |
| 2026-04-19 06:29 | 52.35161 | 13.86977 | 7395 ft | 245 kts | 55° |
| 2026-04-19 06:29 | 52.36479 | 13.88628 | 6954 ft | 241 kts | 16° |
| 2026-04-19 06:30 | 52.38112 | 13.88566 | 6507 ft | 238 kts | 339° |
| 2026-04-19 06:30 | 52.39577 | 13.87406 | 6244 ft | 227 kts | 335° |
| 2026-04-19 06:30 | 52.40921 | 13.86225 | 6101 ft | 213 kts | 322° |
| 2026-04-19 06:30 | 52.41864 | 13.84519 | 5997 ft | 194 kts | 301° |
| 2026-04-19 06:31 | 52.42323 | 13.82589 | 5889 ft | 171 kts | 282° |
| 2026-04-19 06:31 | 52.42380 | 13.80742 | 5691 ft | 156 kts | 264° |
| 2026-04-19 06:31 | 52.42123 | 13.79046 | 5379 ft | 153 kts | 248° |
| 2026-04-19 06:31 | 52.41742 | 13.77422 | 5032 ft | 152 kts | 249° |
| 2026-04-19 06:32 | 52.41363 | 13.75797 | 4687 ft | 152 kts | 249° |
| 2026-04-19 06:32 | 52.40985 | 13.74181 | 4340 ft | 152 kts | 249° |
| 2026-04-19 06:32 | 52.40608 | 13.72572 | 4012 ft | 150 kts | 249° |
| 2026-04-19 06:32 | 52.40235 | 13.70979 | 3668 ft | 150 kts | 249° |
| 2026-04-19 06:33 | 52.39865 | 13.69405 | 3338 ft | 150 kts | 249° |
| 2026-04-19 06:33 | 52.39490 | 13.67807 | 2883 ft | 155 kts | 249° |
| 2026-04-19 06:33 | 52.39082 | 13.66068 | 2207 ft | 169 kts | 248° |
| 2026-04-19 06:33 | 52.38669 | 13.64312 | 1909 ft | 157 kts | 248° |
| 2026-04-19 06:34 | 52.38284 | 13.62676 | 1596 ft | 150 kts | 248° |
| 2026-04-19 06:34 | 52.37916 | 13.61112 | 1358 ft | 145 kts | 248° |
| 2026-04-19 06:34 | 52.37557 | 13.59589 | 1153 ft | 143 kts | 249° |
| 2026-04-19 06:34 | 52.37201 | 13.58078 | 949 ft | 142 kts | 249° |
| 2026-04-19 06:35 | 52.36842 | 13.56557 | 752 ft | 144 kts | 249° |
| 2026-04-19 06:35 | 52.36481 | 13.55030 | 567 ft | 144 kts | 250° |
| 2026-04-19 06:35 | 52.36120 | 13.53503 | 364 ft | 144 kts | 249° |
| 2026-04-19 06:35 | 52.35761 | 13.51977 | 176 ft | 143 kts | 249° |
| 2026-04-19 06:36 | 52.35433 | 13.50592 | 154 ft | 114 kts | 249° |
| 2026-04-19 06:36 | 52.35201 | 13.49609 | 154 ft | 70 kts | 249° |
| 2026-04-19 06:36 | 52.35090 | 13.49141 | 154 ft | 32 kts | 252° |
| 2026-04-19 06:36 | 52.35085 | 13.48775 | 154 ft | 33 kts | 279° |
| 2026-04-19 06:37 | 52.35123 | 13.48548 | 154 ft | 18 kts | 326° |
| 2026-04-19 06:37 | 52.35207 | 13.48640 | 154 ft | 17 kts | 68° |
| 2026-04-19 06:37 | 52.35252 | 13.48830 | 154 ft | 19 kts | 70° |
| 2026-04-19 06:37 | 52.35301 | 13.49044 | 154 ft | 21 kts | 69° |
| 2026-04-19 06:38 | 52.35355 | 13.49269 | 154 ft | 22 kts | 69° |
| 2026-04-19 06:38 | 52.35413 | 13.49512 | 154 ft | 24 kts | 68° |
| 2026-04-19 06:38 | 52.35475 | 13.49770 | 154 ft | 25 kts | 69° |
| 2026-04-19 06:38 | 52.35538 | 13.50041 | 154 ft | 26 kts | 69° |
| 2026-04-19 06:39 | 52.35607 | 13.50322 | 154 ft | 27 kts | 68° |
| 2026-04-19 06:39 | 52.35675 | 13.50614 | 154 ft | 28 kts | 70° |
| 2026-04-19 06:39 | 52.35740 | 13.50819 | 154 ft | 16 kts | 25° |
| 2026-04-19 06:39 | 52.35854 | 13.50776 | 154 ft | 18 kts | 340° |
| 2026-04-19 06:40 | 52.35974 | 13.50697 | 157 ft | 19 kts | 339° |
| 2026-04-19 06:40 | 52.36107 | 13.50614 | 154 ft | 21 kts | 339° |
| 2026-04-19 06:40 | 52.36246 | 13.50528 | 155 ft | 9 kts | 340° |
| 2026-04-19 06:40 | 52.36294 | 13.50523 | 154 ft | 5 kts | 58° |
| 2026-04-19 06:41 | 52.36307 | 13.50574 | 155 ft | 4 kts | 69° |
| 2026-04-19 06:41 | 52.36316 | 13.50613 | 155 ft | 3 kts | 69° |
| 2026-04-19 06:41 | 52.36321 | 13.50635 | 155 ft | 0 kts | 69° |